createdAt,value
2024-03-05T00:01:26.468Z,11.98
2024-03-05T00:06:31.909Z,12.57
2024-03-05T00:11:35.801Z,9.85
2024-03-05T00:16:39.894Z,14.57
2024-03-05T00:21:45.407Z,10.77
2024-03-05T00:26:49.285Z,13.50
2024-03-05T00:31:53.587Z,15.98
2024-03-05T00:36:59.253Z,13.27
2024-03-05T00:42:05.218Z,13.10
2024-03-05T00:47:09.116Z,17.90
2024-03-05T00:52:15.256Z,15.67
2024-03-05T00:57:19.152Z,17.25
2024-03-05T01:02:24.169Z,15.23
2024-03-05T01:07:29.745Z,14.20
2024-03-05T01:12:33.680Z,14.32
2024-03-05T01:17:37.874Z,14.70
2024-03-05T01:22:43.556Z,17.17
2024-03-05T01:27:47.550Z,15.73
2024-03-05T01:32:53.063Z,18.20
2024-03-05T01:37:58.443Z,16.45
2024-03-05T01:43:02.381Z,16.65
2024-03-05T01:48:07.367Z,16.57
2024-03-05T01:53:16.904Z,20.90
2024-03-05T01:58:21.226Z,14.13
2024-03-05T02:03:25.335Z,13.77
2024-03-05T02:08:31.113Z,13.88
2024-03-05T02:13:35.724Z,15.60
2024-03-05T02:18:39.583Z,18.42
2024-03-05T02:23:44.837Z,14.00
2024-03-05T02:28:50.361Z,17.05
2024-03-05T02:33:55.478Z,14.73
2024-03-05T02:39:00.748Z,16.13
2024-03-05T02:44:05.599Z,15.45
2024-03-05T02:54:15.678Z,16.95
2024-03-05T02:59:20.162Z,16.08
2024-03-05T03:04:24.291Z,15.63
2024-03-05T03:09:30.260Z,16.70
2024-03-05T03:14:34.510Z,15.80
2024-03-05T03:19:39.121Z,12.82
2024-03-05T03:24:44.831Z,15.13
2024-03-05T03:29:48.952Z,13.98
2024-03-05T03:34:53.609Z,14.95
2024-03-05T03:39:58.881Z,16.70
2024-03-05T03:45:02.835Z,12.98
2024-03-05T03:50:09.053Z,14.25
2024-03-05T03:55:14.811Z,15.25
2024-03-05T04:00:20.423Z,14.65
2024-03-05T04:05:26.131Z,15.95
2024-03-05T04:10:31.519Z,16.60
2024-03-05T04:15:35.446Z,13.98
2024-03-05T04:20:39.295Z,16.43
2024-03-05T04:25:45.344Z,16.17
2024-03-05T04:30:50.200Z,15.50
2024-03-05T04:40:59.562Z,16.80
2024-03-05T04:46:03.729Z,16.63
2024-03-05T04:51:11.195Z,16.73
2024-03-05T04:56:16.656Z,15.27
2024-03-05T05:01:20.628Z,18.45
2024-03-05T05:06:24.536Z,15.37
2024-03-05T05:11:30.326Z,15.03
2024-03-05T05:16:34.483Z,12.98
2024-03-05T05:21:38.628Z,13.50
2024-03-05T05:26:47.949Z,13.88
2024-03-05T05:31:51.919Z,13.38
2024-03-05T05:36:56.159Z,12.48
2024-03-05T05:42:01.733Z,14.53
2024-03-05T05:47:06.423Z,14.50
2024-03-05T05:57:16.153Z,15.77
2024-03-05T06:02:21.533Z,15.40
2024-03-05T06:07:25.919Z,12.68
2024-03-05T06:12:32.947Z,14.45
2024-03-05T06:17:36.941Z,12.25
2024-03-05T06:22:41.603Z,15.87
2024-03-05T06:33:10.529Z,15.57
2024-03-05T06:38:14.763Z,11.73
2024-03-05T06:43:22.822Z,11.90
2024-03-05T06:48:28.314Z,10.55
2024-03-05T06:53:49.855Z,11.60
2024-03-05T06:58:54.838Z,11.90
2024-03-05T07:04:00.589Z,13.43
2024-03-05T07:09:05.162Z,10.73
2024-03-05T07:14:09.589Z,12.13
2024-03-05T07:19:15.295Z,11.80
2024-03-05T07:24:19.291Z,10.57
2024-03-05T07:29:23.204Z,12.07
2024-03-05T07:34:28.582Z,9.55
2024-03-05T07:39:33.075Z,11.18
2024-03-05T07:44:39.015Z,11.00
2024-03-05T07:49:44.301Z,11.27
2024-03-05T07:54:48.539Z,9.27
2024-03-05T08:00:15.648Z,9.13
2024-03-05T08:05:22.713Z,9.15
2024-03-05T08:10:27.332Z,8.70
2024-03-05T08:15:31.490Z,9.27
2024-03-05T08:20:36.941Z,9.55
2024-03-05T08:25:58.481Z,7.75
2024-03-05T08:31:02.486Z,6.50
2024-03-05T08:36:10.078Z,8.07
2024-03-05T08:41:13.973Z,6.80
2024-03-05T08:46:17.977Z,6.57
2024-03-05T08:51:23.437Z,7.93
2024-03-05T08:56:27.345Z,6.47
2024-03-05T09:01:31.315Z,7.00
2024-03-05T09:06:37.061Z,7.03
2024-03-05T09:11:41.065Z,5.93
2024-03-05T09:16:45.350Z,6.28
2024-03-05T09:21:52.124Z,5.65
2024-03-05T09:26:56.041Z,4.63
2024-03-05T09:31:59.944Z,5.45
2024-03-05T09:37:05.382Z,5.53
2024-03-05T09:42:12.049Z,4.30
2024-03-05T09:47:17.735Z,5.47
2024-03-05T09:52:23.158Z,4.38
2024-03-05T09:57:30.382Z,4.68
2024-03-05T10:02:35.057Z,5.32
2024-03-05T10:07:40.770Z,5.03
2024-03-05T10:12:45.069Z,5.03
2024-03-05T10:17:51.681Z,4.80
2024-03-05T10:22:59.924Z,5.07
2024-03-05T10:28:05.627Z,4.25
2024-03-05T10:33:11.708Z,4.80
2024-03-05T10:38:19.500Z,3.63
2024-03-05T10:43:23.716Z,3.90
2024-03-05T10:48:28.854Z,2.88
2024-03-05T10:53:34.852Z,2.58
2024-03-05T10:58:56.716Z,2.83
2024-03-05T11:04:03.060Z,4.85
2024-03-05T11:09:09.601Z,3.42
2024-03-05T11:14:15.379Z,2.13
2024-03-05T11:19:19.726Z,2.80
2024-03-05T11:24:26.276Z,2.42
2024-03-05T11:29:38.784Z,2.17
2024-03-05T11:34:49.483Z,3.17
2024-03-05T11:39:54.902Z,3.38
2024-03-05T11:44:59.066Z,1.92
2024-03-05T11:50:06.688Z,2.13
2024-03-05T11:55:27.688Z,1.52
2024-03-05T12:00:31.605Z,1.92
2024-03-05T12:05:35.734Z,2.00
2024-03-05T12:10:42.381Z,2.30
2024-03-05T12:15:46.853Z,2.75
2024-03-05T12:20:50.836Z,1.70
2024-03-05T12:25:56.145Z,3.20
2024-03-05T12:31:00.268Z,2.00
2024-03-05T12:36:04.267Z,1.58
2024-03-05T12:41:11.224Z,1.83
2024-03-05T12:46:20.782Z,1.40
2024-03-05T12:51:24.968Z,2.13
2024-03-05T12:56:30.484Z,3.37
2024-03-05T13:01:34.463Z,2.20
2024-03-05T13:06:38.450Z,2.33
2024-03-05T13:11:44.423Z,2.07
2024-03-05T13:16:48.639Z,2.83
2024-03-05T13:21:52.945Z,1.42
2024-03-05T13:26:58.985Z,1.70
2024-03-05T13:32:03.024Z,2.28
2024-03-05T13:37:07.005Z,3.77
2024-03-05T13:42:12.688Z,2.07
2024-03-05T13:47:18.731Z,2.95
2024-03-05T13:52:24.159Z,2.03
2024-03-05T13:57:30.324Z,2.58
2024-03-05T14:02:34.438Z,2.00
2024-03-05T14:07:38.632Z,3.13
2024-03-05T14:12:44.137Z,2.93
2024-03-05T14:17:48.453Z,2.33
2024-03-05T14:22:52.531Z,6.20
2024-03-05T14:27:57.889Z,2.95
2024-03-05T14:33:56.191Z,2.95
2024-03-05T14:39:04.588Z,2.08
2024-03-05T14:44:12.445Z,2.70
2024-03-05T14:49:16.794Z,2.40
2024-03-05T14:54:20.732Z,2.42
2024-03-05T14:59:26.534Z,3.30
2024-03-05T15:04:30.722Z,2.22
2024-03-05T15:09:37.162Z,2.42
2024-03-05T15:14:44.359Z,2.47
2024-03-05T15:19:51.156Z,3.08
2024-03-05T15:24:55.007Z,4.35
2024-03-05T15:30:00.389Z,2.92
2024-03-05T15:35:04.986Z,5.55
2024-03-05T15:40:16.865Z,2.95
2024-03-05T15:45:23.017Z,2.72
2024-03-05T15:50:31.512Z,3.55
2024-03-05T15:55:40.507Z,2.72
2024-03-05T16:00:49.674Z,2.78
2024-03-05T16:06:00.782Z,4.78
2024-03-05T16:11:10.780Z,4.10
2024-03-05T16:16:17.169Z,3.92
2024-03-05T16:21:40.659Z,2.70
2024-03-05T16:26:46.205Z,2.95
2024-03-05T16:31:51.548Z,2.55
2024-03-05T16:36:55.465Z,2.58
2024-03-05T16:41:59.305Z,2.80
2024-03-05T16:47:04.878Z,4.28
2024-03-05T16:52:09.131Z,2.70
2024-03-05T16:57:13.182Z,3.47
2024-03-05T17:02:24.089Z,2.93
2024-03-05T17:07:32.751Z,3.50
2024-03-05T17:12:39.027Z,4.63
2024-03-05T17:17:56.034Z,3.55
2024-03-05T17:23:04.697Z,3.05
2024-03-05T17:28:13.595Z,3.28
2024-03-05T17:33:19.449Z,4.72
2024-03-05T17:38:23.419Z,2.33
2024-03-05T17:43:29.742Z,3.58
2024-03-05T17:48:35.913Z,2.63
2024-03-05T17:53:40.999Z,2.53
2024-03-05T17:58:45.757Z,3.58
2024-03-05T18:08:55.859Z,3.35
2024-03-05T18:14:00.857Z,2.67
2024-03-05T18:19:09.024Z,5.15
2024-03-05T18:24:13.774Z,1.92
2024-03-05T18:29:18.090Z,3.08
2024-03-05T18:34:25.488Z,2.42
2024-03-05T18:39:29.480Z,5.10
2024-03-05T18:44:33.378Z,4.90
2024-03-05T18:49:43.626Z,3.03
2024-03-05T18:54:47.766Z,4.90
2024-03-05T18:59:51.993Z,4.47
2024-03-05T19:05:06.809Z,7.27
2024-03-05T19:10:14.155Z,3.50
2024-03-05T19:15:18.942Z,3.88
2024-03-05T19:20:24.701Z,4.15
2024-03-05T19:25:29.765Z,3.03
2024-03-05T19:30:39.628Z,2.35
2024-03-05T19:35:45.501Z,5.32
2024-03-05T19:40:50.226Z,2.60
2024-03-05T19:45:54.291Z,2.20
2024-03-05T19:50:59.549Z,2.20
2024-03-05T19:56:05.344Z,2.85
2024-03-05T20:01:09.740Z,5.00
2024-03-05T20:06:15.130Z,2.30
2024-03-05T20:11:19.590Z,4.00
2024-03-05T20:16:23.544Z,2.78
2024-03-05T20:21:28.924Z,4.07
2024-03-05T20:26:33.019Z,5.07
2024-03-05T20:31:37.047Z,2.42
2024-03-05T20:36:42.523Z,3.20
2024-03-05T20:41:47.484Z,4.57
2024-03-05T20:46:51.371Z,2.53
2024-03-05T20:51:58.369Z,2.90
2024-03-05T20:57:02.555Z,2.83
2024-03-05T21:02:11.151Z,4.18
2024-03-05T21:07:16.820Z,2.13
2024-03-05T21:12:20.665Z,3.03
2024-03-05T21:17:26.250Z,3.77
2024-03-05T21:22:31.619Z,2.90
2024-03-05T21:27:36.418Z,2.88
2024-03-05T21:32:40.759Z,3.42
2024-03-05T21:37:47.696Z,2.90
2024-03-05T21:42:51.634Z,4.63
2024-03-05T21:47:55.569Z,5.53
2024-03-05T21:53:00.908Z,6.63
2024-03-05T21:58:05.145Z,3.38
2024-03-05T22:03:09.586Z,2.90
2024-03-05T22:08:15.002Z,3.72
2024-03-05T22:13:19.258Z,3.55
2024-03-05T22:18:23.157Z,3.10
2024-03-05T22:23:28.489Z,2.73
2024-03-05T22:28:32.693Z,4.38
2024-03-05T22:33:36.606Z,3.22
2024-03-05T22:38:41.882Z,4.30
2024-03-05T22:43:46.498Z,3.35
2024-03-05T22:53:55.741Z,6.28
2024-03-05T22:58:59.918Z,4.57
2024-03-05T23:04:03.866Z,2.72
2024-03-05T23:09:13.698Z,4.72
2024-03-05T23:14:18.269Z,3.80
2024-03-05T23:19:22.304Z,3.35
2024-03-05T23:24:27.581Z,3.78
2024-03-05T23:29:31.504Z,4.10
2024-03-05T23:34:35.902Z,4.13
2024-03-05T23:39:41.735Z,4.15
2024-03-05T23:44:45.926Z,3.78
2024-03-05T23:49:50.041Z,3.90
2024-03-05T23:54:58.134Z,3.55
